Schofield Barracks, Hawaii
Current Conditions -  °F | °C
As of 6:53 PM on Monday 20 Oct 2014 (Local Time) from PHJR Reporting Station
Clear Clear  
Wind Chill: 79°   Ceiling: Unl
Heat Index: 82°   Visibility: 10mi
Dew Point: 70°   Wind: 5mph
Humidity: 74%   Direction: NA
Pressure: 29.97"   Gusts: NA
Location:  21.5°N, 158.06°W
Report Text: PHJR 210453Z VRB04KT 10SM CLR 26/21 A2997 RMK AO2 SLP155 T02610211
Loading
Personal Weather Stations






























Interactive Weather Map
Tropical Storm Tracking
New forecast layout! Learn more

10-Day Weather Forecast

Advertisements
Track Severe Weather on mobile